sensor_id;sensor_type;location;lat;lon;timestamp;pressure;altitude;pressure_sealevel;temperature;humidity
42603;BME280;28233;55.748;48.752;2022-09-01T00:00:53;98198.69;;;20.73;62.07
42603;BME280;28233;55.748;48.752;2022-09-01T00:02:56;98189.53;;;20.73;62.07
42603;BME280;28233;55.748;48.752;2022-09-01T00:04:59;98189.94;;;20.71;62.04
42603;BME280;28233;55.748;48.752;2022-09-01T00:07:06;98185.97;;;20.68;62.19
42603;BME280;28233;55.748;48.752;2022-09-01T00:09:16;98197.22;;;20.65;62.19
42603;BME280;28233;55.748;48.752;2022-09-01T00:11:20;98195.69;;;20.60;62.39
42603;BME280;28233;55.748;48.752;2022-09-01T00:13:23;98205.72;;;20.54;62.81
42603;BME280;28233;55.748;48.752;2022-09-01T00:15:26;98198.19;;;20.51;62.53
42603;BME280;28233;55.748;48.752;2022-09-01T00:17:29;98210.13;;;20.52;62.61
42603;BME280;28233;55.748;48.752;2022-09-01T00:19:33;98218.19;;;20.46;62.86
42603;BME280;28233;55.748;48.752;2022-09-01T00:21:41;98213.50;;;20.39;63.13
42603;BME280;28233;55.748;48.752;2022-09-01T00:23:44;98210.06;;;20.28;63.45
42603;BME280;28233;55.748;48.752;2022-09-01T00:25:47;98211.31;;;20.23;63.96
42603;BME280;28233;55.748;48.752;2022-09-01T00:27:50;98216.13;;;20.19;63.72
42603;BME280;28233;55.748;48.752;2022-09-01T00:29:53;98212.66;;;20.12;64.15
42603;BME280;28233;55.748;48.752;2022-09-01T00:31:55;98217.09;;;20.05;64.47
42603;BME280;28233;55.748;48.752;2022-09-01T00:33:59;98214.38;;;20.02;64.47
42603;BME280;28233;55.748;48.752;2022-09-01T00:36:03;98225.56;;;19.98;64.82
42603;BME280;28233;55.748;48.752;2022-09-01T00:38:06;98227.66;;;19.91;65.34
42603;BME280;28233;55.748;48.752;2022-09-01T00:40:10;98223.69;;;19.88;65.11
42603;BME280;28233;55.748;48.752;2022-09-01T00:42:14;98218.13;;;19.88;65.24
42603;BME280;28233;55.748;48.752;2022-09-01T00:44:20;98225.69;;;19.88;65.38
42603;BME280;28233;55.748;48.752;2022-09-01T00:46:43;98212.22;;;19.82;65.81
42603;BME280;28233;55.748;48.752;2022-09-01T00:51:12;98218.69;;;19.72;65.81
42603;BME280;28233;55.748;48.752;2022-09-01T00:53:14;98231.88;;;19.68;65.99
42603;BME280;28233;55.748;48.752;2022-09-01T00:55:25;98207.72;;;19.54;66.42
42603;BME280;28233;55.748;48.752;2022-09-01T00:57:28;98216.03;;;19.58;66.20
42603;BME280;28233;55.748;48.752;2022-09-01T00:59:31;98224.00;;;19.56;66.34
42603;BME280;28233;55.748;48.752;2022-09-01T01:01:35;98226.03;;;19.52;66.28
42603;BME280;28233;55.748;48.752;2022-09-01T01:03:38;98229.66;;;19.49;66.71
42603;BME280;28233;55.748;48.752;2022-09-01T01:05:48;98232.91;;;19.43;66.60
42603;BME280;28233;55.748;48.752;2022-09-01T01:07:55;98232.91;;;19.40;66.92
42603;BME280;28233;55.748;48.752;2022-09-01T01:09:58;98234.97;;;19.32;67.14
42603;BME280;28233;55.748;48.752;2022-09-01T01:12:03;98232.25;;;19.29;67.35
42603;BME280;28233;55.748;48.752;2022-09-01T01:14:08;98244.22;;;19.22;67.46
42603;BME280;28233;55.748;48.752;2022-09-01T01:16:14;98231.94;;;19.19;67.71
42603;BME280;28233;55.748;48.752;2022-09-01T01:18:17;98231.53;;;19.17;67.57
42603;BME280;28233;55.748;48.752;2022-09-01T01:20:26;98229.59;;;19.14;68.18
42603;BME280;28233;55.748;48.752;2022-09-01T01:25:15;98226.09;;;18.99;68.27
42603;BME280;28233;55.748;48.752;2022-09-01T01:27:20;98220.97;;;18.98;68.39
42603;BME280;28233;55.748;48.752;2022-09-01T01:29:23;98232.13;;;18.94;68.77
42603;BME280;28233;55.748;48.752;2022-09-01T01:31:26;98221.81;;;18.91;68.70
42603;BME280;28233;55.748;48.752;2022-09-01T01:33:34;98227.44;;;18.84;68.92
42603;BME280;28233;55.748;48.752;2022-09-01T01:35:44;98227.88;;;18.79;69.07
42603;BME280;28233;55.748;48.752;2022-09-01T01:37:49;98219.13;;;18.73;69.02
42603;BME280;28233;55.748;48.752;2022-09-01T01:39:51;98232.66;;;18.71;69.14
42603;BME280;28233;55.748;48.752;2022-09-01T01:41:56;98227.50;;;18.66;69.45
42603;BME280;28233;55.748;48.752;2022-09-01T01:44:01;98230.34;;;18.63;69.59
42603;BME280;28233;55.748;48.752;2022-09-01T01:46:07;98229.56;;;18.55;70.03
42603;BME280;28233;55.748;48.752;2022-09-01T01:48:10;98222.03;;;18.52;70.18
42603;BME280;28233;55.748;48.752;2022-09-01T01:50:14;98235.19;;;18.48;70.22
42603;BME280;28233;55.748;48.752;2022-09-01T01:52:17;98230.81;;;18.47;70.30
42603;BME280;28233;55.748;48.752;2022-09-01T01:54:28;98234.03;;;18.42;70.42
42603;BME280;28233;55.748;48.752;2022-09-01T01:56:33;98237.59;;;18.38;70.67
42603;BME280;28233;55.748;48.752;2022-09-01T01:58:41;98236.84;;;18.34;71.06
42603;BME280;28233;55.748;48.752;2022-09-01T02:00:45;98241.22;;;18.32;70.96
42603;BME280;28233;55.748;48.752;2022-09-01T02:02:50;98234.91;;;18.28;70.99
42603;BME280;28233;55.748;48.752;2022-09-01T02:04:56;98234.50;;;18.26;71.16
42603;BME280;28233;55.748;48.752;2022-09-01T02:06:59;98227.34;;;18.25;71.08
42603;BME280;28233;55.748;48.752;2022-09-01T02:09:02;98239.28;;;18.22;71.17
42603;BME280;28233;55.748;48.752;2022-09-01T02:11:06;98246.06;;;18.17;71.71
42603;BME280;28233;55.748;48.752;2022-09-01T02:13:12;98245.28;;;18.13;71.82
42603;BME280;28233;55.748;48.752;2022-09-01T02:15:18;98261.97;;;18.09;71.96
42603;BME280;28233;55.748;48.752;2022-09-01T02:17:21;98254.06;;;18.04;72.53
42603;BME280;28233;55.748;48.752;2022-09-01T02:19:24;98260.41;;;18.01;72.61
42603;BME280;28233;55.748;48.752;2022-09-01T02:21:28;98260.81;;;18.00;73.14
42603;BME280;28233;55.748;48.752;2022-09-01T02:23:31;98253.69;;;17.95;73.59
42603;BME280;28233;55.748;48.752;2022-09-01T02:25:35;98271.16;;;17.95;73.40
42603;BME280;28233;55.748;48.752;2022-09-01T02:27:55;98257.66;;;17.94;73.58
42603;BME280;28233;55.748;48.752;2022-09-01T02:29:57;98256.47;;;17.95;73.74
42603;BME280;28233;55.748;48.752;2022-09-01T02:32:00;98246.16;;;17.88;74.02
42603;BME280;28233;55.748;48.752;2022-09-01T02:34:07;98258.47;;;17.91;74.09
42603;BME280;28233;55.748;48.752;2022-09-01T02:36:14;98255.28;;;17.89;74.30
42603;BME280;28233;55.748;48.752;2022-09-01T02:38:19;98257.28;;;17.85;74.45
42603;BME280;28233;55.748;48.752;2022-09-01T02:40:22;98262.03;;;17.84;74.58
42603;BME280;28233;55.748;48.752;2022-09-01T02:42:25;98258.09;;;17.82;74.75
42603;BME280;28233;55.748;48.752;2022-09-01T02:44:31;98266.03;;;17.83;74.59
42603;BME280;28233;55.748;48.752;2022-09-01T02:46:33;98260.06;;;17.88;74.18
42603;BME280;28233;55.748;48.752;2022-09-01T02:48:43;98258.03;;;17.96;73.76
42603;BME280;28233;55.748;48.752;2022-09-01T02:50:47;98254.47;;;17.99;73.41
42603;BME280;28233;55.748;48.752;2022-09-01T02:52:51;98256.06;;;18.00;73.29
42603;BME280;28233;55.748;48.752;2022-09-01T02:54:55;98250.88;;;18.02;73.35
42603;BME280;28233;55.748;48.752;2022-09-01T02:56:59;98259.63;;;18.04;72.95
42603;BME280;28233;55.748;48.752;2022-09-01T02:59:02;98256.84;;;18.01;72.90
42603;BME280;28233;55.748;48.752;2022-09-01T03:01:20;98260.00;;;18.03;72.81
42603;BME280;28233;55.748;48.752;2022-09-01T03:03:26;98269.53;;;18.05;72.68
42603;BME280;28233;55.748;48.752;2022-09-01T03:05:30;98269.53;;;18.09;72.22
42603;BME280;28233;55.748;48.752;2022-09-01T03:07:35;98271.50;;;18.12;72.10
42603;BME280;28233;55.748;48.752;2022-09-01T03:09:39;98265.50;;;18.17;71.65
42603;BME280;28233;55.748;48.752;2022-09-01T03:11:47;98274.22;;;18.26;71.25
42603;BME280;28233;55.748;48.752;2022-09-01T03:13:51;98266.22;;;18.32;70.75
42603;BME280;28233;55.748;48.752;2022-09-01T03:15:55;98270.53;;;18.44;70.72
42603;BME280;28233;55.748;48.752;2022-09-01T03:17:59;98277.28;;;18.50;70.60
42603;BME280;28233;55.748;48.752;2022-09-01T03:20:02;98264.59;;;18.49;70.32
42603;BME280;28233;55.748;48.752;2022-09-01T03:22:05;98278.88;;;18.51;70.03
42603;BME280;28233;55.748;48.752;2022-09-01T03:24:09;98274.91;;;18.48;70.25
42603;BME280;28233;55.748;48.752;2022-09-01T03:26:18;98277.69;;;18.48;70.15
42603;BME280;28233;55.748;48.752;2022-09-01T03:28:23;98276.94;;;18.44;70.44
42603;BME280;28233;55.748;48.752;2022-09-01T03:30:27;98282.88;;;18.46;70.16
42603;BME280;28233;55.748;48.752;2022-09-01T03:32:31;98283.31;;;18.37;70.48
42603;BME280;28233;55.748;48.752;2022-09-01T03:34:34;98291.66;;;18.37;70.64
42603;BME280;28233;55.748;48.752;2022-09-01T03:36:38;98288.88;;;18.34;70.66
42603;BME280;28233;55.748;48.752;2022-09-01T03:38:41;98299.59;;;18.35;70.86
42603;BME280;28233;55.748;48.752;2022-09-01T03:40:45;98299.97;;;18.41;70.80
42603;BME280;28233;55.748;48.752;2022-09-01T03:42:49;98302.72;;;18.48;70.45
42603;BME280;28233;55.748;48.752;2022-09-01T03:44:54;98297.53;;;18.50;70.33
42603;BME280;28233;55.748;48.752;2022-09-01T03:46:58;98296.72;;;18.57;70.35
42603;BME280;28233;55.748;48.752;2022-09-01T03:49:04;98287.16;;;18.62;70.11
42603;BME280;28233;55.748;48.752;2022-09-01T03:51:09;98295.06;;;18.67;70.49
42603;BME280;28233;55.748;48.752;2022-09-01T03:53:20;98298.28;;;18.65;69.93
42603;BME280;28233;55.748;48.752;2022-09-01T03:55:27;98294.31;;;18.63;70.15
42603;BME280;28233;55.748;48.752;2022-09-01T03:57:32;98299.88;;;18.63;69.85
42603;BME280;28233;55.748;48.752;2022-09-01T03:59:36;98302.66;;;18.55;70.07
42603;BME280;28233;55.748;48.752;2022-09-01T04:01:46;98293.19;;;18.46;70.25
42603;BME280;28233;55.748;48.752;2022-09-01T04:03:49;98295.97;;;18.46;70.37
42603;BME280;28233;55.748;48.752;2022-09-01T04:05:53;98293.97;;;18.50;70.47
42603;BME280;28233;55.748;48.752;2022-09-01T04:07:58;98302.72;;;18.52;70.37
42603;BME280;28233;55.748;48.752;2022-09-01T04:10:05;98289.59;;;18.52;70.61
42603;BME280;28233;55.748;48.752;2022-09-01T04:12:12;98303.50;;;18.56;70.16
42603;BME280;28233;55.748;48.752;2022-09-01T04:14:17;98292.72;;;18.62;69.83
42603;BME280;28233;55.748;48.752;2022-09-01T04:18:43;98307.38;;;18.69;69.65
42603;BME280;28233;55.748;48.752;2022-09-01T04:20:55;98295.06;;;18.70;69.59
42603;BME280;28233;55.748;48.752;2022-09-01T04:22:58;98303.41;;;18.77;69.26
42603;BME280;28233;55.748;48.752;2022-09-01T04:25:01;98301.78;;;18.80;69.07
42603;BME280;28233;55.748;48.752;2022-09-01T04:27:04;98311.72;;;18.81;68.78
42603;BME280;28233;55.748;48.752;2022-09-01T04:29:08;98301.41;;;18.82;68.74
42603;BME280;28233;55.748;48.752;2022-09-01T04:31:18;98308.50;;;18.90;68.61
42603;BME280;28233;55.748;48.752;2022-09-01T04:33:24;98311.66;;;18.92;68.51
42603;BME280;28233;55.748;48.752;2022-09-01T04:35:27;98309.66;;;18.96;68.01
42603;BME280;28233;55.748;48.752;2022-09-01T04:37:43;98300.47;;;18.99;68.03
42603;BME280;28233;55.748;48.752;2022-09-01T04:39:52;98303.25;;;19.03;68.08
42603;BME280;28233;55.748;48.752;2022-09-01T04:41:58;98315.97;;;19.04;67.91
42603;BME280;28233;55.748;48.752;2022-09-01T04:44:05;98324.66;;;19.09;67.76
42603;BME280;28233;55.748;48.752;2022-09-01T04:46:08;98325.44;;;19.13;67.86
42603;BME280;28233;55.748;48.752;2022-09-01T04:48:12;98323.81;;;19.16;67.87
42603;BME280;28233;55.748;48.752;2022-09-01T04:50:17;98330.16;;;19.20;67.89
42603;BME280;28233;55.748;48.752;2022-09-01T04:52:19;98336.91;;;19.26;67.91
42603;BME280;28233;55.748;48.752;2022-09-01T04:54:22;98330.88;;;19.31;67.96
42603;BME280;28233;55.748;48.752;2022-09-01T04:56:25;98334.44;;;19.32;67.74
42603;BME280;28233;55.748;48.752;2022-09-01T04:58:32;98337.19;;;19.35;67.43
42603;BME280;28233;55.748;48.752;2022-09-01T05:00:35;98333.59;;;19.38;67.21
42603;BME280;28233;55.748;48.752;2022-09-01T05:02:38;98337.97;;;19.39;66.93
42603;BME280;28233;55.748;48.752;2022-09-01T05:04:41;98337.94;;;19.43;67.03
42603;BME280;28233;55.748;48.752;2022-09-01T05:06:53;98337.91;;;19.47;67.34
42603;BME280;28233;55.748;48.752;2022-09-01T05:09:02;98335.88;;;19.54;67.44
42603;BME280;28233;55.748;48.752;2022-09-01T05:11:05;98346.13;;;19.64;67.48
42603;BME280;28233;55.748;48.752;2022-09-01T05:13:12;98346.94;;;19.69;66.52
42603;BME280;28233;55.748;48.752;2022-09-01T05:15:15;98354.06;;;19.73;66.29
42603;BME280;28233;55.748;48.752;2022-09-01T05:17:18;98344.47;;;19.78;66.26
42603;BME280;28233;55.748;48.752;2022-09-01T05:19:21;98349.59;;;19.83;66.23
42603;BME280;28233;55.748;48.752;2022-09-01T05:21:30;98367.44;;;19.89;65.95
42603;BME280;28233;55.748;48.752;2022-09-01T05:23:33;98359.81;;;19.93;65.32
42603;BME280;28233;55.748;48.752;2022-09-01T05:25:39;98352.63;;;19.99;65.36
42603;BME280;28233;55.748;48.752;2022-09-01T05:27:44;98359.75;;;20.00;65.08
42603;BME280;28233;55.748;48.752;2022-09-01T05:29:51;98351.44;;;19.97;65.15
42603;BME280;28233;55.748;48.752;2022-09-01T05:31:55;98359.44;;;19.95;65.19
42603;BME280;28233;55.748;48.752;2022-09-01T05:34:00;98361.44;;;19.94;65.29
42603;BME280;28233;55.748;48.752;2022-09-01T05:36:04;98368.25;;;19.90;65.61
42603;BME280;28233;55.748;48.752;2022-09-01T05:38:11;98368.56;;;19.95;65.71
42603;BME280;28233;55.748;48.752;2022-09-01T05:40:15;98361.31;;;20.05;65.62
42603;BME280;28233;55.748;48.752;2022-09-01T05:42:18;98367.59;;;20.13;65.21
42603;BME280;28233;55.748;48.752;2022-09-01T05:44:21;98375.94;;;20.16;65.09
42603;BME280;28233;55.748;48.752;2022-09-01T05:46:25;98385.84;;;20.21;64.96
42603;BME280;28233;55.748;48.752;2022-09-01T05:48:29;98371.06;;;20.24;64.58
42603;BME280;28233;55.748;48.752;2022-09-01T05:50:32;98375.03;;;20.26;63.91
42603;BME280;28233;55.748;48.752;2022-09-01T05:52:37;98390.66;;;20.20;63.73
42603;BME280;28233;55.748;48.752;2022-09-01T05:54:42;98386.25;;;20.19;63.85
42603;BME280;28233;55.748;48.752;2022-09-01T05:56:45;98407.38;;;20.20;63.70
42603;BME280;28233;55.748;48.752;2022-09-01T05:58:48;98387.47;;;20.18;63.79
42603;BME280;28233;55.748;48.752;2022-09-01T06:01:16;98388.28;;;20.15;64.25
42603;BME280;28233;55.748;48.752;2022-09-01T06:03:23;98396.66;;;20.15;64.33
42603;BME280;28233;55.748;48.752;2022-09-01T06:05:28;98392.28;;;20.14;64.31
42603;BME280;28233;55.748;48.752;2022-09-01T06:07:33;98394.63;;;20.19;63.71
42603;BME280;28233;55.748;48.752;2022-09-01T06:09:44;98394.97;;;20.25;63.31
42603;BME280;28233;55.748;48.752;2022-09-01T06:11:48;98392.22;;;20.21;63.65
42603;BME280;28233;55.748;48.752;2022-09-01T06:13:52;98383.38;;;20.26;63.34
42603;BME280;28233;55.748;48.752;2022-09-01T06:15:58;98400.13;;;20.26;63.34
42603;BME280;28233;55.748;48.752;2022-09-01T06:18:05;98402.09;;;20.30;63.23
42603;BME280;28233;55.748;48.752;2022-09-01T06:20:08;98394.53;;;20.30;62.96
42603;BME280;28233;55.748;48.752;2022-09-01T06:22:12;98398.56;;;20.25;63.15
42603;BME280;28233;55.748;48.752;2022-09-01T06:24:15;98408.09;;;20.24;63.21
42603;BME280;28233;55.748;48.752;2022-09-01T06:28:30;98410.88;;;20.28;63.64
42603;BME280;28233;55.748;48.752;2022-09-01T06:30:33;98411.59;;;20.36;63.58
42603;BME280;28233;55.748;48.752;2022-09-01T06:32:37;98409.94;;;20.42;62.96
42603;BME280;28233;55.748;48.752;2022-09-01T06:34:42;98415.06;;;20.47;62.69
42603;BME280;28233;55.748;48.752;2022-09-01T06:36:51;98420.97;;;20.53;62.10
42603;BME280;28233;55.748;48.752;2022-09-01T06:38:55;98407.84;;;20.49;62.29
42603;BME280;28233;55.748;48.752;2022-09-01T06:41:02;98413.75;;;20.55;62.25
42603;BME280;28233;55.748;48.752;2022-09-01T06:43:07;98406.97;;;20.60;61.81
42603;BME280;28233;55.748;48.752;2022-09-01T06:45:12;98417.34;;;20.59;61.28
42603;BME280;28233;55.748;48.752;2022-09-01T06:47:16;98413.75;;;20.59;61.76
42603;BME280;28233;55.748;48.752;2022-09-01T06:49:20;98419.22;;;20.69;61.41
42603;BME280;28233;55.748;48.752;2022-09-01T06:51:25;98421.56;;;20.75;60.72
42603;BME280;28233;55.748;48.752;2022-09-01T06:53:33;98422.75;;;20.74;60.27
42603;BME280;28233;55.748;48.752;2022-09-01T06:55:37;98427.09;;;20.78;60.28
42603;BME280;28233;55.748;48.752;2022-09-01T06:57:41;98423.47;;;20.81;60.06
42603;BME280;28233;55.748;48.752;2022-09-01T07:00:09;98424.59;;;20.87;60.04
42603;BME280;28233;55.748;48.752;2022-09-01T07:02:22;98428.44;;;20.97;59.95
42603;BME280;28233;55.748;48.752;2022-09-01T07:04:28;98438.44;;;20.95;59.50
42603;BME280;28233;55.748;48.752;2022-09-01T07:06:33;98432.06;;;20.98;59.43
42603;BME280;28233;55.748;48.752;2022-09-01T07:08:58;98432.84;;;20.98;59.22
42603;BME280;28233;55.748;48.752;2022-09-01T07:11:26;98436.81;;;20.97;58.94
42603;BME280;28233;55.748;48.752;2022-09-01T07:13:50;98435.66;;;20.95;59.47
42603;BME280;28233;55.748;48.752;2022-09-01T07:16:16;98443.72;;;20.89;59.05
42603;BME280;28233;55.748;48.752;2022-09-01T07:18:36;98448.84;;;20.94;58.93
42603;BME280;28233;55.748;48.752;2022-09-01T07:20:40;98459.13;;;21.01;58.42
42603;BME280;28233;55.748;48.752;2022-09-01T07:23:03;98451.22;;;20.96;57.68
42603;BME280;28233;55.748;48.752;2022-09-01T07:25:08;98459.97;;;20.98;57.46
42603;BME280;28233;55.748;48.752;2022-09-01T07:27:33;98459.53;;;20.99;58.21
42603;BME280;28233;55.748;48.752;2022-09-01T07:29:56;98463.03;;;21.07;57.30
42603;BME280;28233;55.748;48.752;2022-09-01T07:31:59;98449.34;;;21.16;57.33
42603;BME280;28233;55.748;48.752;2022-09-01T07:34:22;98460.41;;;21.23;57.06
42603;BME280;28233;55.748;48.752;2022-09-01T07:36:47;98458.28;;;21.35;56.26
42603;BME280;28233;55.748;48.752;2022-09-01T07:39:12;98472.44;;;21.51;56.00
42603;BME280;28233;55.748;48.752;2022-09-01T07:41:35;98461.66;;;21.53;56.02
42603;BME280;28233;55.748;48.752;2022-09-01T07:44:03;98460.38;;;21.58;55.16
42603;BME280;28233;55.748;48.752;2022-09-01T07:46:07;98463.56;;;21.60;55.30
42603;BME280;28233;55.748;48.752;2022-09-01T07:48:31;98466.25;;;21.67;55.39
42603;BME280;28233;55.748;48.752;2022-09-01T07:50:54;98463.63;;;21.80;52.98
42603;BME280;28233;55.748;48.752;2022-09-01T07:53:23;98463.09;;;21.88;51.68
42603;BME280;28233;55.748;48.752;2022-09-01T07:55:26;98460.59;;;21.94;50.25
42603;BME280;28233;55.748;48.752;2022-09-01T07:57:30;98469.75;;;21.98;49.58
42603;BME280;28233;55.748;48.752;2022-09-01T07:59:33;98466.41;;;22.07;50.05
42603;BME280;28233;55.748;48.752;2022-09-01T08:01:36;98474.69;;;22.14;49.60
42603;BME280;28233;55.748;48.752;2022-09-01T08:03:40;98462.00;;;22.06;48.60
42603;BME280;28233;55.748;48.752;2022-09-01T08:05:43;98466.72;;;22.12;48.51
42603;BME280;28233;55.748;48.752;2022-09-01T08:07:46;98467.31;;;22.27;48.49
42603;BME280;28233;55.748;48.752;2022-09-01T08:09:53;98493.38;;;22.44;47.38
42603;BME280;28233;55.748;48.752;2022-09-01T08:12:03;98466.47;;;22.50;47.16
42603;BME280;28233;55.748;48.752;2022-09-01T08:14:08;98470.41;;;22.53;46.87
42603;BME280;28233;55.748;48.752;2022-09-01T08:16:12;98474.56;;;22.45;46.65
42603;BME280;28233;55.748;48.752;2022-09-01T08:18:20;98465.91;;;22.39;47.20
42603;BME280;28233;55.748;48.752;2022-09-01T08:20:23;98474.06;;;22.50;46.88
42603;BME280;28233;55.748;48.752;2022-09-01T08:22:26;98474.31;;;22.59;46.14
42603;BME280;28233;55.748;48.752;2022-09-01T08:24:29;98473.66;;;22.51;46.24
42603;BME280;28233;55.748;48.752;2022-09-01T08:26:32;98475.31;;;22.49;46.29
42603;BME280;28233;55.748;48.752;2022-09-01T08:28:35;98471.28;;;22.50;46.36
42603;BME280;28233;55.748;48.752;2022-09-01T08:30:39;98478.38;;;22.34;45.87
42603;BME280;28233;55.748;48.752;2022-09-01T08:32:53;98472.66;;;22.14;46.18
42603;BME280;28233;55.748;48.752;2022-09-01T08:34:56;98473.56;;;22.08;46.19
42603;BME280;28233;55.748;48.752;2022-09-01T08:36:59;98463.66;;;22.03;46.57
42603;BME280;28233;55.748;48.752;2022-09-01T08:39:02;98473.56;;;22.08;46.67
42603;BME280;28233;55.748;48.752;2022-09-01T08:41:37;98481.19;;;22.07;45.88
42603;BME280;28233;55.748;48.752;2022-09-01T08:45:52;98482.00;;;22.31;45.80
42603;BME280;28233;55.748;48.752;2022-09-01T08:48:00;98473.84;;;22.41;45.66
42603;BME280;28233;55.748;48.752;2022-09-01T08:50:28;98489.72;;;22.47;45.47
42603;BME280;28233;55.748;48.752;2022-09-01T08:52:37;98480.78;;;22.56;45.08
42603;BME280;28233;55.748;48.752;2022-09-01T08:54:48;98497.34;;;22.67;44.49
42603;BME280;28233;55.748;48.752;2022-09-01T08:56:58;98486.53;;;22.69;44.54
42603;BME280;28233;55.748;48.752;2022-09-01T08:59:04;98485.78;;;22.65;45.13
42603;BME280;28233;55.748;48.752;2022-09-01T09:01:17;98481.84;;;22.62;44.66
42603;BME280;28233;55.748;48.752;2022-09-01T09:04:35;98495.75;;;22.46;44.55
42603;BME280;28233;55.748;48.752;2022-09-01T09:08:25;98487.56;;;22.08;45.46
42603;BME280;28233;55.748;48.752;2022-09-01T09:10:50;98491.75;;;22.20;45.41
42603;BME280;28233;55.748;48.752;2022-09-01T09:17:51;98497.91;;;22.82;43.15
42603;BME280;28233;55.748;48.752;2022-09-01T09:20:03;98473.41;;;22.86;42.69
42603;BME280;28233;55.748;48.752;2022-09-01T09:22:11;98484.13;;;22.91;42.69
42603;BME280;28233;55.748;48.752;2022-09-01T09:24:30;98486.19;;;22.87;42.94
42603;BME280;28233;55.748;48.752;2022-09-01T09:26:55;98472.09;;;22.90;42.60
42603;BME280;28233;55.748;48.752;2022-09-01T09:29:00;98486.78;;;22.98;43.22
42603;BME280;28233;55.748;48.752;2022-09-01T09:31:39;98479.56;;;23.00;43.24
42603;BME280;28233;55.748;48.752;2022-09-01T09:33:53;98501.38;;;23.09;42.29
42603;BME280;28233;55.748;48.752;2022-09-01T09:36:19;98489.75;;;23.11;41.55
42603;BME280;28233;55.748;48.752;2022-09-01T09:38:26;98488.88;;;23.14;42.13
42603;BME280;28233;55.748;48.752;2022-09-01T09:40:35;98489.38;;;23.09;42.15
42603;BME280;28233;55.748;48.752;2022-09-01T09:43:02;98493.47;;;23.04;42.96
42603;BME280;28233;55.748;48.752;2022-09-01T09:45:20;98501.31;;;23.13;42.09
42603;BME280;28233;55.748;48.752;2022-09-01T09:47:42;98493.56;;;23.00;42.32
42603;BME280;28233;55.748;48.752;2022-09-01T09:49:46;98491.03;;;23.06;42.91
42603;BME280;28233;55.748;48.752;2022-09-01T09:51:52;98485.66;;;23.15;43.07
42603;BME280;28233;55.748;48.752;2022-09-01T09:54:13;98490.22;;;23.26;42.58
42603;BME280;28233;55.748;48.752;2022-09-01T09:56:18;98477.66;;;23.34;42.49
42603;BME280;28233;55.748;48.752;2022-09-01T09:58:23;98486.25;;;23.43;42.18
42603;BME280;28233;55.748;48.752;2022-09-01T10:00:33;98480.75;;;23.56;41.99
42603;BME280;28233;55.748;48.752;2022-09-01T10:02:39;98482.97;;;23.64;41.22
42603;BME280;28233;55.748;48.752;2022-09-01T10:04:43;98490.38;;;23.75;41.32
42603;BME280;28233;55.748;48.752;2022-09-01T10:06:46;98481.97;;;23.75;40.87
42603;BME280;28233;55.748;48.752;2022-09-01T10:08:49;98484.59;;;23.82;41.02
42603;BME280;28233;55.748;48.752;2022-09-01T10:10:53;98503.75;;;23.87;40.52
42603;BME280;28233;55.748;48.752;2022-09-01T10:12:59;98488.72;;;23.94;40.77
42603;BME280;28233;55.748;48.752;2022-09-01T10:15:08;98480.84;;;24.05;40.44
42603;BME280;28233;55.748;48.752;2022-09-01T10:17:29;98480.25;;;24.14;39.92
42603;BME280;28233;55.748;48.752;2022-09-01T10:19:37;98481.44;;;24.29;40.09
42603;BME280;28233;55.748;48.752;2022-09-01T10:21:44;98486.25;;;24.45;39.43
42603;BME280;28233;55.748;48.752;2022-09-01T10:23:47;98494.34;;;24.43;39.90
42603;BME280;28233;55.748;48.752;2022-09-01T10:25:51;98497.91;;;24.43;39.75
42603;BME280;28233;55.748;48.752;2022-09-01T10:28:09;98491.09;;;24.44;39.42
42603;BME280;28233;55.748;48.752;2022-09-01T10:30:18;98493.75;;;24.52;39.52
42603;BME280;28233;55.748;48.752;2022-09-01T10:32:39;98489.69;;;24.53;39.29
42603;BME280;28233;55.748;48.752;2022-09-01T10:34:54;98487.50;;;24.60;38.75
42603;BME280;28233;55.748;48.752;2022-09-01T10:37:01;98489.78;;;24.65;39.43
42603;BME280;28233;55.748;48.752;2022-09-01T10:39:09;98484.75;;;24.73;39.46
42603;BME280;28233;55.748;48.752;2022-09-01T10:43:47;98477.91;;;25.16;37.65
42603;BME280;28233;55.748;48.752;2022-09-01T10:45:51;98478.53;;;25.37;37.99
42603;BME280;28233;55.748;48.752;2022-09-01T10:48:28;98489.22;;;25.42;36.91
42603;BME280;28233;55.748;48.752;2022-09-01T10:50:33;98489.31;;;25.25;37.50
42603;BME280;28233;55.748;48.752;2022-09-01T10:57:39;98474.28;;;25.03;37.42
42603;BME280;28233;55.748;48.752;2022-09-01T10:59:47;98482.78;;;24.86;37.95
42603;BME280;28233;55.748;48.752;2022-09-01T11:02:12;98486.19;;;24.65;37.65
42603;BME280;28233;55.748;48.752;2022-09-01T11:09:19;98480.13;;;24.34;38.76
42603;BME280;28233;55.748;48.752;2022-09-01T11:11:34;98477.59;;;24.56;38.78
42603;BME280;28233;55.748;48.752;2022-09-01T11:13:45;98464.94;;;24.93;38.37
42603;BME280;28233;55.748;48.752;2022-09-01T11:15:52;98478.63;;;25.20;37.93
42603;BME280;28233;55.748;48.752;2022-09-01T11:17:56;98474.28;;;25.45;37.49
42603;BME280;28233;55.748;48.752;2022-09-01T11:26:46;98487.81;;;26.14;35.75
42603;BME280;28233;55.748;48.752;2022-09-01T11:28:50;98478.44;;;26.17;35.63
42603;BME280;28233;55.748;48.752;2022-09-01T11:35:20;98469.69;;;26.02;35.50
42603;BME280;28233;55.748;48.752;2022-09-01T11:37:23;98473.41;;;26.12;35.56
42603;BME280;28233;55.748;48.752;2022-09-01T11:39:36;98472.72;;;26.21;35.71
42603;BME280;28233;55.748;48.752;2022-09-01T11:41:59;98466.16;;;26.24;35.94
42603;BME280;28233;55.748;48.752;2022-09-01T11:44:39;98466.41;;;26.29;35.58
42603;BME280;28233;55.748;48.752;2022-09-01T11:46:44;98473.00;;;26.48;35.94
42603;BME280;28233;55.748;48.752;2022-09-01T11:48:48;98467.78;;;26.60;35.60
42603;BME280;28233;55.748;48.752;2022-09-01T11:50:59;98470.03;;;26.65;34.99